Time;durP1;ratioP1;P1;durP2;ratioP2;P2;SDS_P1;SDS_P2;PMS_P1;PMS_P2;Temp;Humidity;BMP_temperature;BMP_pressure;BME280_temperature;BME280_humidity;BME280_pressure;Samples;Min_cycle;Max_cycle;Signal;HPM_P1;HPM_P2
2021/12/13 00:00:04;;;;;;;1.47;0.67;;;;;;;-145.69;100.00;73321.09;5076064;28;20608;-78
2021/12/13 00:02:37;;;;;;;0.80;0.70;;;;;;;-145.69;100.00;73329.03;5076057;28;20206;-78
2021/12/13 00:05:12;;;;;;;0.80;0.80;;;;;;;-145.69;100.00;73344.97;5076123;28;20202;-78
2021/12/13 00:07:44;;;;;;;1.97;0.90;;;;;;;-145.69;100.00;73339.00;5075560;28;20202;-78
2021/12/13 00:10:17;;;;;;;2.27;1.00;;;;;;;-145.69;100.00;73337.00;5076064;28;20199;-78
2021/12/13 00:12:47;;;;;;;0.80;0.80;;;;;;;-145.69;100.00;73348.97;5075892;28;20206;-78
2021/12/13 00:15:24;;;;;;;3.33;0.80;;;;;;;-145.69;100.00;73348.97;5076449;28;20933;-78
2021/12/13 00:17:53;;;;;;;2.93;0.90;;;;;;;-145.69;100.00;73333.03;5075577;28;20222;-78
2021/12/13 00:20:27;;;;;;;2.50;0.90;;;;;;;-145.69;100.00;73321.09;5075924;28;20202;-78
2021/12/13 00:22:59;;;;;;;5.87;1.00;;;;;;;-145.69;100.00;73323.06;5075304;28;20198;-78
2021/12/13 00:25:28;;;;;;;3.90;1.03;;;;;;;-145.69;100.00;73311.13;5075838;28;20565;-78
2021/12/13 00:27:57;;;;;;;3.70;1.10;;;;;;;-145.69;100.00;73297.19;5075782;28;20562;-78
2021/12/13 00:30:33;;;;;;;2.03;0.73;;;;;;;-145.69;100.00;73309.13;5075346;28;20210;-78
2021/12/13 00:33:08;;;;;;;5.33;0.90;;;;;;;-145.69;100.00;73305.16;5075288;28;20661;-77
2021/12/13 00:35:38;;;;;;;4.87;1.57;;;;;;;-145.69;100.00;73319.09;5075613;28;20259;-78
2021/12/13 00:38:09;;;;;;;4.00;1.60;;;;;;;-145.69;100.00;73325.06;5057819;28;20685;-78
2021/12/13 00:40:40;;;;;;;1.47;0.77;;;;;;;-145.69;100.00;73311.13;5071422;28;20198;-78
2021/12/13 00:43:11;;;;;;;1.60;0.80;;;;;;;-145.69;100.00;73311.13;5075145;28;20220;-78
2021/12/13 00:45:52;;;;;;;1.93;0.90;;;;;;;-145.69;100.00;73313.13;5075453;28;20222;-78
2021/12/13 00:48:19;;;;;;;2.93;1.20;;;;;;;-145.69;100.00;73299.19;5075225;28;20203;-78
2021/12/13 00:50:53;;;;;;;3.03;0.90;;;;;;;-145.69;100.00;73301.19;5075281;28;20604;-78
2021/12/13 00:53:22;;;;;;;6.13;1.40;;;;;;;-145.69;100.00;73303.16;5074761;28;20198;-78
2021/12/13 00:55:50;;;;;;;6.10;1.50;;;;;;;-145.69;100.00;73301.19;5075463;28;20237;-78
2021/12/13 00:58:20;;;;;;;2.47;1.30;;;;;;;-145.69;100.00;73299.19;5074983;28;20231;-77
2021/12/13 01:00:52;;;;;;;1.27;1.13;;;;;;;-145.69;100.00;73291.22;5074672;28;20199;-78
2021/12/13 01:03:22;;;;;;;5.20;1.60;;;;;;;-145.69;100.00;73293.22;5075008;28;20253;-78
2021/12/13 01:06:10;;;;;;;3.00;1.33;;;;;;;-145.69;100.00;73297.19;5075017;28;20660;-78
2021/12/13 01:09:26;;;;;;;2.27;1.10;;;;;;;-145.69;100.00;73293.22;5054829;28;20215;-78
2021/12/13 01:11:56;;;;;;;7.27;1.33;;;;;;;-145.69;100.00;73289.22;5037226;28;20207;-77
2021/12/13 01:14:55;;;;;;;2.57;1.27;;;;;;;-145.69;100.00;73281.25;5054741;28;20214;-77
2021/12/13 01:17:36;;;;;;;3.00;1.47;;;;;;;-145.69;100.00;73287.25;5054234;28;20303;-77
2021/12/13 01:20:10;;;;;;;3.00;1.30;;;;;;;-145.69;100.00;73279.28;5054581;28;20199;-77
2021/12/13 01:22:48;;;;;;;2.00;1.13;;;;;;;-145.69;100.00;73289.22;5069447;28;20202;-77
2021/12/13 01:25:36;;;;;;;5.67;1.40;;;;;;;-145.69;100.00;73281.25;5074446;28;20199;-77
2021/12/13 01:28:08;;;;;;;2.87;0.90;;;;;;;-145.69;100.00;73289.22;5074246;28;20673;-77
2021/12/13 01:30:37;;;;;;;2.33;1.40;;;;;;;-145.69;100.00;73285.25;5074195;28;20202;-77
2021/12/13 01:33:06;;;;;;;3.90;1.20;;;;;;;-145.69;100.00;73285.25;5074380;28;20206;-78
2021/12/13 01:35:37;;;;;;;4.87;1.90;;;;;;;-145.69;100.00;73297.19;5074241;28;20290;-78
2021/12/13 01:38:08;;;;;;;3.27;1.77;;;;;;;-145.69;100.00;73309.13;5073801;28;20229;-78
2021/12/13 01:40:40;;;;;;;6.23;1.50;;;;;;;-145.69;100.00;73309.13;5073908;28;20213;-77
2021/12/13 01:43:14;;;;;;;4.17;1.40;;;;;;;-145.69;100.00;73315.13;5074025;28;20203;-78
2021/12/13 01:45:45;;;;;;;3.27;1.50;;;;;;;-145.69;100.00;73321.09;5074241;28;20202;-78
2021/12/13 01:48:19;;;;;;;4.40;1.63;;;;;;;-145.69;100.00;73327.06;5074346;28;20252;-78
2021/12/13 01:50:52;;;;;;;4.87;2.10;;;;;;;-145.69;100.00;73346.97;5073508;28;20195;-78
2021/12/13 01:53:32;;;;;;;4.50;1.47;;;;;;;-145.69;100.00;73321.09;5073449;28;20645;-78
2021/12/13 01:56:08;;;;;;;2.63;1.10;;;;;;;-145.69;100.00;73321.09;5073768;28;20195;-78
2021/12/13 01:58:42;;;;;;;6.10;0.90;;;;;;;-145.69;100.00;73315.13;5073835;28;20238;-78
2021/12/13 02:01:14;;;;;;;5.27;1.00;;;;;;;-145.69;100.00;73297.19;5073695;28;20198;-78
2021/12/13 02:03:56;;;;;;;3.50;0.80;;;;;;;-145.69;100.00;73289.22;5073294;28;20657;-77
2021/12/13 02:06:28;;;;;;;3.57;1.03;;;;;;;-145.69;100.00;73271.31;5073462;28;20206;-78
2021/12/13 02:09:01;;;;;;;1.77;0.87;;;;;;;-145.69;100.00;73267.34;5073612;28;20209;-77
2021/12/13 02:11:33;;;;;;;4.07;1.40;;;;;;;-145.69;100.00;73255.38;5073298;28;20198;-77
2021/12/13 02:14:14;;;;;;;1.57;1.10;;;;;;;-145.69;100.00;73245.44;5073436;28;20203;-78
2021/12/13 02:17:01;;;;;;;6.03;0.87;;;;;;;-145.69;100.00;73261.34;5073227;28;20294;-78
2021/12/13 02:19:48;;;;;;;1.33;0.80;;;;;;;-145.69;100.00;73261.34;5073369;28;20333;-78
2021/12/13 02:22:55;;;;;;;4.93;1.33;;;;;;;-145.69;100.00;73317.09;5072897;28;20203;-77
2021/12/13 02:25:28;;;;;;;2.23;1.03;;;;;;;-145.69;100.00;73313.13;5043066;28;20299;-78
2021/12/13 02:28:01;;;;;;;1.13;0.97;;;;;;;-145.69;100.00;73331.03;5073060;28;20680;-78
2021/12/13 02:30:34;;;;;;;2.80;1.10;;;;;;;-145.69;100.00;73335.03;5072841;28;20198;-78
2021/12/13 02:33:09;;;;;;;4.47;0.93;;;;;;;-145.69;100.00;73325.06;5073073;28;20202;-77
2021/12/13 02:35:46;;;;;;;2.37;0.97;;;;;;;-145.69;100.00;73305.16;5071886;28;20553;-77
2021/12/13 02:38:17;;;;;;;3.57;1.40;;;;;;;-145.69;100.00;73281.25;5073094;28;20582;-77
2021/12/13 02:40:44;;;;;;;5.20;1.33;;;;;;;-145.69;100.00;73259.38;5073097;28;20205;-77
2021/12/13 02:43:15;;;;;;;7.70;1.77;;;;;;;-145.69;100.00;73245.44;5072998;28;20684;-77
2021/12/13 02:45:48;;;;;;;4.17;1.10;;;;;;;-145.69;100.00;73231.50;5073252;28;20202;-77
2021/12/13 02:48:30;;;;;;;4.20;1.30;;;;;;;-145.69;100.00;73217.56;5055905;28;20278;-77
2021/12/13 02:51:08;;;;;;;7.40;1.70;;;;;;;-145.69;100.00;73209.59;5052970;28;20289;-78
2021/12/13 02:53:43;;;;;;;5.00;1.47;;;;;;;-145.69;100.00;73199.66;5052870;28;20235;-78
2021/12/13 02:56:14;;;;;;;3.70;1.23;;;;;;;-145.69;100.00;73201.63;5052814;28;20199;-78
2021/12/13 02:58:45;;;;;;;1.80;1.00;;;;;;;-145.69;100.00;73205.63;5052968;28;20219;-78
2021/12/13 03:01:20;;;;;;;4.60;1.17;;;;;;;-145.69;100.00;73223.53;5058635;28;20208;-78
2021/12/13 03:03:50;;;;;;;4.63;1.30;;;;;;;-145.69;100.00;73227.50;5072645;28;20202;-78
2021/12/13 03:06:20;;;;;;;4.07;1.10;;;;;;;-145.69;100.00;73229.50;5073052;28;20207;-78
2021/12/13 03:08:59;;;;;;;3.53;1.30;;;;;;;-145.69;100.00;73225.53;5072997;28;20206;-78
2021/12/13 03:11:31;;;;;;;4.33;1.30;;;;;;;-145.69;100.00;73229.50;5072944;28;20534;-78
2021/12/13 03:14:01;;;;;;;5.17;1.47;;;;;;;-145.69;100.00;73235.47;5072505;28;20207;-78
2021/12/13 03:16:31;;;;;;;7.83;1.60;;;;;;;-145.69;100.00;73243.44;5072574;28;20601;-78
2021/12/13 03:19:09;;;;;;;5.33;1.50;;;;;;;-145.69;100.00;73251.41;5072529;28;20275;-78
2021/12/13 03:22:29;;;;;;;6.07;1.77;;;;;;;-145.69;100.00;73267.34;5072747;28;20199;-78
2021/12/13 03:25:15;;;;;;;3.43;1.10;;;;;;;-145.69;100.00;73283.25;5072306;28;20226;-78
2021/12/13 03:28:11;;;;;;;1.60;1.07;;;;;;;-145.69;100.00;73283.25;5075686;28;20566;-78
2021/12/13 03:30:47;;;;;;;2.40;0.80;;;;;;;-145.69;100.00;73289.22;5076574;28;20286;-78
2021/12/13 03:33:17;;;;;;;2.43;1.40;;;;;;;-145.69;100.00;73279.28;5076394;28;20218;-78
2021/12/13 03:35:55;;;;;;;4.00;1.10;;;;;;;-145.69;100.00;73273.31;5076555;28;20264;-78
2021/12/13 03:38:28;;;;;;;4.83;1.20;;;;;;;-145.69;100.00;73261.34;5075856;28;20244;-78
2021/12/13 03:41:02;;;;;;;5.90;1.10;;;;;;;-145.69;100.00;73253.41;5076030;28;20198;-78
2021/12/13 03:43:32;;;;;;;3.17;0.93;;;;;;;-145.69;100.00;73245.44;5076170;28;20215;-78
2021/12/13 03:46:03;;;;;;;1.73;0.70;;;;;;;-145.69;100.00;73239.47;5075878;28;20240;-78
2021/12/13 03:48:33;;;;;;;3.17;1.00;;;;;;;-145.69;100.00;73235.47;5076340;28;20206;-78
2021/12/13 03:51:04;;;;;;;1.97;0.50;;;;;;;-145.69;100.00;73249.41;5076084;28;20195;-78
2021/12/13 03:53:40;;;;;;;2.60;0.80;;;;;;;-145.69;100.00;73257.38;5075621;28;20207;-78
2021/12/13 03:56:13;;;;;;;4.43;0.70;;;;;;;-145.69;100.00;73255.38;5076339;28;20289;-78
2021/12/13 03:58:47;;;;;;;2.10;0.80;;;;;;;-145.69;100.00;73257.38;5075983;28;20222;-78
2021/12/13 04:01:20;;;;;;;1.40;0.70;;;;;;;-145.69;100.00;73253.41;5075834;28;20202;-78
2021/12/13 04:03:52;;;;;;;7.10;1.00;;;;;;;-145.69;100.00;73247.41;5075964;28;20199;-78
2021/12/13 04:06:22;;;;;;;2.97;0.77;;;;;;;-145.69;100.00;73247.41;5075817;28;20612;-78
2021/12/13 04:08:51;;;;;;;6.07;0.80;;;;;;;-145.69;100.00;73259.38;5075511;28;20206;-78
2021/12/13 04:11:22;;;;;;;3.57;1.00;;;;;;;-145.69;100.00;73253.41;5075722;28;20329;-78
2021/12/13 04:14:00;;;;;;;5.07;1.20;;;;;;;-145.69;100.00;73245.44;5075702;28;20195;-78
2021/12/13 04:16:35;;;;;;;4.97;1.10;;;;;;;-145.69;100.00;73239.47;5075610;28;20202;-78
2021/12/13 04:19:10;;;;;;;3.50;1.17;;;;;;;-145.69;100.00;73239.47;5075523;28;20272;-78
2021/12/13 04:21:47;;;;;;;4.33;1.40;;;;;;;-145.69;100.00;73243.44;5075660;28;20285;-78
2021/12/13 04:24:21;;;;;;;5.87;1.70;;;;;;;-145.69;100.00;73257.38;5074928;28;20633;-78
2021/12/13 04:26:56;;;;;;;3.67;1.10;;;;;;;-145.69;100.00;73277.28;5075544;28;20198;-78
2021/12/13 04:29:32;;;;;;;1.87;0.93;;;;;;;-145.69;100.00;73289.22;5075301;28;20206;-77
2021/12/13 04:32:09;;;;;;;4.90;1.37;;;;;;;-145.69;100.00;73293.22;5075599;28;20209;-78
2021/12/13 04:34:43;;;;;;;3.50;1.10;;;;;;;-145.69;100.00;73301.19;5075411;28;20202;-78
2021/12/13 04:37:14;;;;;;;3.83;1.20;;;;;;;-145.69;100.00;73283.25;5074603;28;20230;-78
2021/12/13 04:39:45;;;;;;;4.50;1.40;;;;;;;-145.69;100.00;73261.34;5059653;28;20559;-78
2021/12/13 04:42:18;;;;;;;15.50;1.57;;;;;;;-145.69;100.00;73249.41;5055266;28;20208;-78
2021/12/13 04:44:50;;;;;;;10.80;1.60;;;;;;;-145.69;100.00;73241.44;5055226;28;20210;-77
2021/12/13 04:47:21;;;;;;;5.83;1.20;;;;;;;-145.69;100.00;73237.47;5055452;28;20369;-78
2021/12/13 04:49:59;;;;;;;6.47;1.53;;;;;;;-145.69;100.00;73243.44;5055035;28;20274;-78
2021/12/13 04:52:29;;;;;;;6.40;1.87;;;;;;;-145.69;100.00;73249.41;5060707;28;20225;-78
2021/12/13 04:54:56;;;;;;;4.37;1.07;;;;;;;-145.69;100.00;73269.31;5074322;28;20233;-78
2021/12/13 04:57:30;;;;;;;11.20;1.50;;;;;;;-145.69;100.00;73273.31;5074977;28;20293;-78
2021/12/13 05:00:00;;;;;;;7.63;1.20;;;;;;;-145.69;100.00;73269.31;5074750;28;20233;-78
2021/12/13 05:02:32;;;;;;;6.83;1.40;;;;;;;-145.69;100.00;73265.34;5074742;28;20198;-78
2021/12/13 05:05:06;;;;;;;5.37;1.40;;;;;;;-145.69;100.00;73265.34;5074975;28;20222;-78
2021/12/13 05:07:39;;;;;;;6.03;1.03;;;;;;;-145.69;100.00;73269.31;5074834;28;20320;-78
2021/12/13 05:10:06;;;;;;;4.23;1.13;;;;;;;-145.69;100.00;73285.25;5074648;28;20203;-78
2021/12/13 05:12:37;;;;;;;4.03;1.23;;;;;;;-145.69;100.00;73285.25;5074508;28;20721;-78
2021/12/13 05:15:12;;;;;;;6.33;1.33;;;;;;;-145.69;100.00;73271.31;5074278;28;20657;-78
2021/12/13 05:17:41;;;;;;;4.27;1.47;;;;;;;-145.69;100.00;73261.34;5074690;28;20210;-77
2021/12/13 05:20:13;;;;;;;4.40;1.50;;;;;;;-145.69;100.00;73243.44;5074331;28;20226;-78
2021/12/13 05:22:51;;;;;;;6.43;1.57;;;;;;;-145.69;100.00;73239.47;5073680;28;20194;-78
2021/12/13 05:25:23;;;;;;;4.60;0.87;;;;;;;-145.69;100.00;73233.50;5074227;28;20259;-78
2021/12/13 05:28:05;;;;;;;10.77;2.03;;;;;;;-145.69;100.00;73225.53;5074234;28;20206;-78
2021/12/13 05:30:35;;;;;;;14.23;2.10;;;;;;;-145.69;100.00;73229.50;5074119;28;20534;-78
2021/12/13 05:33:05;;;;;;;3.97;1.40;;;;;;;-145.69;100.00;73225.53;5074252;28;20289;-77
2021/12/13 05:35:44;;;;;;;4.53;1.37;;;;;;;-145.69;100.00;73233.50;5074458;28;20248;-77
2021/12/13 05:38:24;;;;;;;12.53;1.37;;;;;;;-145.69;100.00;73237.47;5074338;28;20211;-78
2021/12/13 05:40:57;;;;;;;7.20;1.40;;;;;;;-145.69;100.00;73241.44;5074290;28;20230;-77
2021/12/13 05:43:31;;;;;;;8.23;1.50;;;;;;;-145.69;100.00;73249.41;5074396;28;20194;-78
2021/12/13 05:46:02;;;;;;;3.93;1.50;;;;;;;-145.69;100.00;73257.38;5074375;28;20214;-78
2021/12/13 05:48:50;;;;;;;3.70;1.30;;;;;;;-145.69;100.00;73261.34;5073922;28;20285;-78
2021/12/13 05:51:31;;;;;;;10.70;2.27;;;;;;;-145.69;100.00;73255.38;5073588;28;20194;-78
2021/12/13 05:54:04;;;;;;;6.70;1.53;;;;;;;-145.69;100.00;73253.41;5073749;28;20234;-78
2021/12/13 05:56:38;;;;;;;11.00;1.80;;;;;;;-145.69;100.00;73255.38;5074325;28;20203;-78
2021/12/13 05:59:14;;;;;;;12.73;1.90;;;;;;;-145.69;100.00;73253.41;5073822;28;20604;-77
2021/12/13 06:01:47;;;;;;;14.03;1.70;;;;;;;-145.69;100.00;73245.44;5073529;28;20198;-78
2021/12/13 06:04:17;;;;;;;6.07;1.27;;;;;;;-145.69;100.00;73245.44;5073762;28;20199;-78
2021/12/13 06:06:47;;;;;;;10.10;1.50;;;;;;;-145.69;100.00;73241.44;5073534;28;20232;-79
2021/12/13 06:09:49;;;;;;;11.33;1.20;;;;;;;-145.69;100.00;73233.50;5073552;28;20207;-79
2021/12/13 06:12:31;;;;;;;8.57;1.93;;;;;;;-145.69;100.00;73235.47;5073648;28;20209;-78
2021/12/13 06:15:08;;;;;;;9.97;1.50;;;;;;;-145.69;100.00;73249.41;5073807;28;20297;-78
2021/12/13 06:17:39;;;;;;;5.43;1.40;;;;;;;-145.69;100.00;73257.38;5073420;28;20244;-78
2021/12/13 06:20:13;;;;;;;10.77;1.53;;;;;;;-145.69;100.00;73261.34;5073448;28;20513;-78
2021/12/13 06:22:40;;;;;;;7.10;1.30;;;;;;;-145.69;100.00;73265.34;5073458;28;20600;-77
2021/12/13 06:25:13;;;;;;;10.40;1.63;;;;;;;-145.69;100.00;73263.34;5073251;28;20203;-77
2021/12/13 06:27:45;;;;;;;6.60;1.30;;;;;;;-145.69;100.00;73267.34;5073323;28;20211;-77
2021/12/13 06:30:23;;;;;;;9.97;2.00;;;;;;;-145.69;100.00;73273.31;5073217;28;20198;-77
2021/12/13 06:32:54;;;;;;;9.47;1.83;;;;;;;-145.69;100.00;73265.34;5073375;28;20209;-77
2021/12/13 06:35:46;;;;;;;11.43;2.13;;;;;;;-145.69;100.00;73275.28;5067045;28;20248;-77
2021/12/13 06:38:42;;;;;;;5.70;1.63;;;;;;;-145.69;100.00;73273.31;5073054;28;20194;-77
2021/12/13 06:41:18;;;;;;;6.03;1.43;;;;;;;-145.69;100.00;73275.28;5072762;28;20585;-78
2021/12/13 06:43:50;;;;;;;8.83;1.97;;;;;;;-145.69;100.00;73273.31;5073148;28;20281;-78
2021/12/13 06:46:45;;;;;;;5.87;1.50;;;;;;;-145.69;100.00;73277.28;5073001;28;20210;-78
2021/12/13 06:49:18;;;;;;;7.17;1.40;;;;;;;-145.69;100.00;73279.28;5072983;28;20202;-78
2021/12/13 06:51:53;;;;;;;3.40;1.10;;;;;;;-145.69;100.00;73271.31;5073151;28;20206;-77
2021/12/13 06:54:27;;;;;;;7.70;1.57;;;;;;;-145.69;100.00;73261.34;5072623;28;20700;-78
2021/12/13 06:57:01;;;;;;;7.17;1.40;;;;;;;-145.69;100.00;73251.41;5073031;28;20260;-78
2021/12/13 06:59:34;;;;;;;4.80;1.60;;;;;;;-145.69;100.00;73233.50;5072791;28;20693;-78
2021/12/13 07:02:11;;;;;;;7.23;1.53;;;;;;;-145.69;100.00;73243.44;5078421;28;20541;-78
2021/12/13 07:04:52;;;;;;;4.93;1.40;;;;;;;-145.69;100.00;73229.50;5079527;28;20201;-78
2021/12/13 07:07:20;;;;;;;5.63;1.20;;;;;;;-145.69;100.00;73217.56;5079334;28;20197;-78
2021/12/13 07:09:57;;;;;;;2.50;1.10;;;;;;;-145.69;100.00;73209.59;5079510;28;20210;-78
2021/12/13 07:12:27;;;;;;;3.00;1.20;;;;;;;-145.69;100.00;73205.63;5079644;28;20202;-78
2021/12/13 07:14:54;;;;;;;4.77;1.00;;;;;;;-145.69;100.00;73209.59;5079257;28;20202;-78
2021/12/13 07:17:28;;;;;;;3.93;1.50;;;;;;;-145.69;100.00;73209.59;5079579;28;20198;-78
2021/12/13 07:19:57;;;;;;;3.13;1.10;;;;;;;-145.69;100.00;73199.66;5078856;28;20287;-78
2021/12/13 07:22:27;;;;;;;1.87;0.90;;;;;;;-145.69;100.00;73189.69;5079451;28;20199;-78
2021/12/13 07:25:10;;;;;;;4.97;0.97;;;;;;;-145.69;100.00;73197.66;5079503;28;20205;-78
2021/12/13 07:27:43;;;;;;;6.33;0.80;;;;;;;-145.69;100.00;73207.59;5079455;28;20206;-79
2021/12/13 07:30:14;;;;;;;3.57;0.60;;;;;;;-145.69;100.00;73213.56;5079323;28;20203;-78
2021/12/13 07:32:46;;;;;;;2.60;0.97;;;;;;;-145.69;100.00;73231.50;5079259;28;20294;-77
2021/12/13 07:35:16;;;;;;;3.70;1.13;;;;;;;-145.69;100.00;73233.50;5079229;28;20209;-78
2021/12/13 07:37:47;;;;;;;2.93;1.27;;;;;;;-145.69;100.00;73243.44;5079205;28;20294;-77
2021/12/13 07:40:27;;;;;;;1.77;1.20;;;;;;;-145.69;100.00;73253.41;5078907;28;20592;-78
2021/12/13 07:43:03;;;;;;;3.43;1.00;;;;;;;-145.69;100.00;73233.50;5078920;28;20681;-77
2021/12/13 07:45:34;;;;;;;3.93;1.20;;;;;;;-145.69;100.00;73219.56;5079412;28;20588;-77
2021/12/13 07:48:12;;;;;;;1.77;1.00;;;;;;;-145.69;100.00;73205.63;5078984;28;20221;-78
2021/12/13 07:50:40;;;;;;;6.97;0.90;;;;;;;-145.69;100.00;73205.63;5079232;28;20206;-78
2021/12/13 07:53:12;;;;;;;2.37;0.93;;;;;;;-145.69;100.00;73187.69;5078982;28;20206;-77
2021/12/13 07:55:46;;;;;;;3.30;0.93;;;;;;;-145.69;100.00;73183.72;5079363;28;20191;-77
2021/12/13 07:58:17;;;;;;;1.20;0.90;;;;;;;-145.69;100.00;73191.69;5079111;28;20205;-77
2021/12/13 08:00:45;;;;;;;2.60;1.20;;;;;;;-145.69;100.00;73181.72;5078785;28;20268;-77
2021/12/13 08:03:16;;;;;;;2.17;1.20;;;;;;;-145.69;100.00;73169.78;5078915;28;20198;-77
2021/12/13 08:05:46;;;;;;;2.93;1.20;;;;;;;-145.69;100.00;73147.88;5078949;28;20209;-77
2021/12/13 08:08:19;;;;;;;4.37;1.43;;;;;;;-145.69;100.00;73135.94;5079101;28;20260;-77
2021/12/13 08:10:46;;;;;;;3.17;1.50;;;;;;;-145.69;100.00;73133.94;5079089;28;20298;-77
2021/12/13 08:13:17;;;;;;;2.10;1.03;;;;;;;-145.69;100.00;73141.91;5076082;28;20202;-77
2021/12/13 08:15:50;;;;;;;5.20;1.20;;;;;;;-145.69;100.00;73149.88;5075419;28;20442;-77
2021/12/13 08:18:28;;;;;;;2.10;1.03;;;;;;;-145.69;100.00;73153.84;5075382;28;20191;-77
2021/12/13 08:20:58;;;;;;;4.27;1.10;;;;;;;-145.69;100.00;73155.84;5075564;28;20226;-78
2021/12/13 08:23:27;;;;;;;5.30;1.30;;;;;;;-145.69;100.00;73137.94;5075584;28;20202;-78
2021/12/13 08:25:58;;;;;;;2.50;1.13;;;;;;;-145.69;100.00;73141.91;5075569;28;20608;-78
2021/12/13 08:28:35;;;;;;;2.23;1.10;;;;;;;-145.69;100.00;73120.00;5075533;28;20574;-77
2021/12/13 08:31:06;;;;;;;5.43;1.60;;;;;;;-145.69;100.00;73092.16;5072145;28;20542;-78
2021/12/13 08:33:37;;;;;;;2.13;1.10;;;;;;;-145.69;100.00;73058.31;5071066;28;20195;-78
2021/12/13 08:36:09;;;;;;;4.73;1.53;;;;;;;-145.69;100.00;73076.22;5075406;28;20227;-77
2021/12/13 08:38:41;;;;;;;2.10;1.13;;;;;;;-145.69;100.00;73076.22;5075333;28;20539;-77
2021/12/13 08:41:26;;;;;;;3.30;1.17;;;;;;;-145.69;100.00;73076.22;5075067;28;20235;-78
2021/12/13 08:43:57;;;;;;;2.13;0.93;;;;;;;-145.69;100.00;73056.31;5075052;28;20293;-78
2021/12/13 08:46:32;;;;;;;4.40;1.20;;;;;;;-145.69;100.00;73044.38;5074975;28;20230;-77
2021/12/13 08:49:14;;;;;;;2.37;1.17;;;;;;;-145.69;100.00;73014.50;5075014;28;20683;-77
2021/12/13 08:51:51;;;;;;;1.53;1.00;;;;;;;-145.69;100.00;72980.66;5074999;28;20199;-77
2021/12/13 08:54:21;;;;;;;2.27;1.23;;;;;;;-145.69;100.00;72986.63;5074970;28;20234;-76
2021/12/13 08:56:51;;;;;;;1.33;1.23;;;;;;;-145.69;100.00;72978.69;5075232;28;20199;-76
2021/12/13 08:59:23;;;;;;;2.23;1.30;;;;;;;-145.69;100.00;72970.72;5074864;28;20706;-76
2021/12/13 09:01:53;;;;;;;2.40;0.80;;;;;;;-145.69;100.00;73030.44;5074471;28;20222;-76
2021/12/13 09:04:30;;;;;;;2.43;1.00;;;;;;;-145.69;100.00;73006.53;5074878;28;20496;-76
2021/12/13 09:07:03;;;;;;;1.93;1.10;;;;;;;-145.69;100.00;73002.56;5074928;28;20206;-76
2021/12/13 09:09:35;;;;;;;2.73;1.50;;;;;;;-145.69;100.00;73040.38;5074683;28;20281;-76
2021/12/13 09:12:09;;;;;;;3.50;1.47;;;;;;;-145.69;100.00;73042.38;5074630;28;20202;-76
2021/12/13 09:14:40;;;;;;;3.40;1.80;;;;;;;-145.69;100.00;73030.44;5074231;28;20234;-77
2021/12/13 09:17:15;;;;;;;2.83;1.83;;;;;;;-145.69;100.00;73018.50;5074758;28;20244;-77
2021/12/13 09:19:57;;;;;;;3.40;2.00;;;;;;;-145.69;100.00;72992.59;5074747;28;20206;-77
2021/12/13 09:22:31;;;;;;;3.40;1.50;;;;;;;-145.69;100.00;72952.78;5074220;28;20199;-76
2021/12/13 09:25:00;;;;;;;5.30;2.17;;;;;;;-145.69;100.00;72926.91;5072954;28;20211;-77
2021/12/13 09:27:35;;;;;;;3.03;1.73;;;;;;;-145.69;100.00;72907.00;5074410;28;20718;-76
2021/12/13 09:30:24;;;;;;;3.53;2.17;;;;;;;-145.69;100.00;72928.91;5074536;28;20561;-77
2021/12/13 09:32:53;;;;;;;6.67;2.90;;;;;;;-145.69;100.00;72905.03;5054190;28;20200;-76
2021/12/13 09:35:34;;;;;;;9.70;4.73;;;;;;;-145.69;100.00;72891.09;5059434;28;20191;-77
2021/12/13 09:38:08;;;;;;;7.83;3.77;;;;;;;-145.69;100.00;72887.09;5073986;28;20203;-77
2021/12/13 09:40:39;;;;;;;6.77;3.90;;;;;;;-145.69;100.00;72875.16;5074120;28;20222;-77
2021/12/13 09:43:08;;;;;;;5.73;3.03;;;;;;;-145.69;100.00;72871.19;5074232;28;20207;-77
2021/12/13 09:45:39;;;;;;;5.10;3.17;;;;;;;-145.69;100.00;72871.19;5073966;28;20202;-77
2021/12/13 09:48:24;;;;;;;4.57;2.50;;;;;;;-145.69;100.00;72841.31;5073829;28;20434;-77
2021/12/13 09:50:59;;;;;;;5.33;2.43;;;;;;;-145.69;100.00;72847.28;5073595;28;20203;-77
2021/12/13 09:53:31;;;;;;;5.53;2.40;;;;;;;-145.69;100.00;72819.44;5073697;28;20607;-76
2021/12/13 09:55:59;;;;;;;8.47;2.30;;;;;;;-145.69;100.00;72791.56;5066726;28;20199;-77
2021/12/13 09:58:29;;;;;;;4.80;2.40;;;;;;;-145.69;100.00;72775.63;5053278;28;20666;-77
2021/12/13 10:00:59;;;;;;;6.77;3.03;;;;;;;-145.69;100.00;72775.63;5053459;28;20223;-76
2021/12/13 10:03:31;;;;;;;6.50;2.90;;;;;;;-145.69;100.00;72807.47;5053732;28;20200;-77
2021/12/13 10:06:03;;;;;;;5.93;3.17;;;;;;;-145.69;100.00;72795.53;5068261;28;20194;-77
2021/12/13 10:08:39;;;;;;;4.80;2.93;;;;;;;-145.69;100.00;72741.78;5073490;28;20203;-78
2021/12/13 10:11:13;;;;;;;4.53;2.80;;;;;;;-145.69;100.00;72713.94;5073535;28;20199;-77
2021/12/13 10:13:41;;;;;;;6.17;3.10;;;;;;;-145.69;100.00;72719.91;5073545;28;20566;-77
2021/12/13 10:16:11;;;;;;;4.93;2.50;;;;;;;-145.69;100.00;72767.69;5073347;28;20203;-77
2021/12/13 10:18:41;;;;;;;7.03;2.87;;;;;;;-145.69;100.00;72781.59;5073483;28;20202;-76
2021/12/13 10:21:12;;;;;;;7.73;2.73;;;;;;;-145.69;100.00;72755.72;5072814;28;20227;-76
2021/12/13 10:23:45;;;;;;;5.03;2.60;;;;;;;-145.69;100.00;72779.63;5073310;28;20198;-77
2021/12/13 10:26:14;;;;;;;10.17;4.77;;;;;;;-145.69;100.00;72817.44;5073219;28;20207;-77
2021/12/13 10:28:52;;;;;;;11.57;4.67;;;;;;;-145.69;100.00;72819.44;5073073;28;20202;-77
2021/12/13 10:31:23;;;;;;;9.23;4.17;;;;;;;-145.69;100.00;72767.69;5073038;28;20332;-77
2021/12/13 10:33:50;;;;;;;10.33;4.03;;;;;;;-145.69;100.00;72721.88;5072587;28;20187;-76
2021/12/13 10:36:18;;;;;;;8.37;3.80;;;;;;;-145.69;100.00;72707.97;5072795;28;20205;-76
2021/12/13 10:38:52;;;;;;;9.63;3.73;;;;;;;-145.69;100.00;72674.13;5063796;28;20218;-76
2021/12/13 10:41:24;;;;;;;10.17;3.70;;;;;;;-145.69;100.00;72670.13;5053023;28;20237;-76
2021/12/13 10:43:54;;;;;;;9.80;3.93;;;;;;;-145.69;100.00;72672.13;5052777;28;20558;-76
2021/12/13 10:46:26;;;;;;;10.87;4.03;;;;;;;-145.69;100.00;72656.22;5052970;28;20558;-77
2021/12/13 10:48:56;;;;;;;11.47;4.67;;;;;;;-145.69;100.00;72638.28;5058954;28;20645;-76
2021/12/13 10:51:27;;;;;;;11.55;5.35;;;;;;;-145.69;100.00;72650.22;5072235;28;20435;-76
2021/12/13 10:53:55;;;;;;;17.90;5.37;;;;;;;-145.69;100.00;72652.22;5072681;28;20268;-76
2021/12/13 10:56:27;;;;;;;15.63;5.17;;;;;;;-145.69;100.00;72707.97;5072777;28;20248;-76
2021/12/13 10:58:57;;;;;;;13.23;5.03;;;;;;;-145.69;100.00;72688.06;5072911;28;20199;-76
2021/12/13 11:01:27;;;;;;;20.47;10.63;;;;;;;-145.69;100.00;72682.09;5072713;28;20231;-76
2021/12/13 11:03:56;;;;;;;10.10;5.67;;;;;;;-145.69;100.00;72668.16;5072808;28;20203;-77
2021/12/13 11:06:25;;;;;;;14.07;5.70;;;;;;;-145.69;100.00;72668.16;5072835;28;20684;-76
2021/12/13 11:08:52;;;;;;;18.13;6.37;;;;;;;-145.69;100.00;72701.97;5072653;28;20209;-76
2021/12/13 11:11:23;;;;;;;15.37;6.57;;;;;;;-145.69;100.00;72731.84;5072661;28;20202;-76
2021/12/13 11:13:53;;;;;;;14.63;5.73;;;;;;;-145.69;100.00;72672.13;5072760;28;20194;-76
2021/12/13 11:16:25;;;;;;;19.17;6.37;;;;;;;-145.69;100.00;72604.44;5072375;28;20202;-76
2021/12/13 11:18:52;;;;;;;19.00;5.60;;;;;;;-145.69;100.00;72566.63;5072755;28;20293;-76
2021/12/13 11:21:23;;;;;;;15.10;6.07;;;;;;;-145.69;100.00;72576.59;5072657;28;20230;-76
2021/12/13 11:23:51;;;;;;;18.50;6.47;;;;;;;-145.69;100.00;72630.31;5072429;28;20210;-76
2021/12/13 11:26:21;;;;;;;13.93;6.20;;;;;;;-145.69;100.00;72594.50;5072402;28;20290;-76
2021/12/13 11:28:49;;;;;;;14.10;5.83;;;;;;;-145.69;100.00;72600.47;5072539;28;20221;-77
2021/12/13 11:31:40;;;;;;;13.77;6.17;;;;;;;-145.69;100.00;72632.31;5072185;28;20290;-76
2021/12/13 11:34:43;;;;;;;13.63;5.50;;;;;;;-145.69;100.00;72650.22;5071969;28;20195;-76
2021/12/13 11:37:57;;;;;;;17.77;6.13;;;;;;;-145.69;100.00;72668.16;5070180;28;20217;-76